createdAt,value
2023-02-11T00:01:10.498Z,100583.81
2023-02-11T00:03:37.492Z,100582.16
2023-02-11T00:06:09.189Z,100582.25
2023-02-11T00:08:36.085Z,100579.69
2023-02-11T00:11:02.780Z,100580.47
2023-02-11T00:13:29.402Z,100578.81
2023-02-11T00:15:57.271Z,100580.56
2023-02-11T00:18:25.218Z,100579.72
2023-02-11T00:20:51.791Z,100573.66
2023-02-11T00:23:18.362Z,100578.91
2023-02-11T00:25:46.057Z,100551.97
2023-02-11T00:28:13.012Z,100570.34
2023-02-11T00:30:40.004Z,100571.28
2023-02-11T00:33:07.450Z,100560.94
2023-02-11T00:35:34.046Z,100565.28
2023-02-11T00:38:00.644Z,100565.28
2023-02-11T00:40:28.327Z,100561.75
2023-02-11T00:42:54.898Z,100572.22
2023-02-11T00:45:21.562Z,100563.59
2023-02-11T00:47:48.387Z,100555.88
2023-02-11T00:50:15.021Z,100560.25
2023-02-11T00:52:41.678Z,100567.16
2023-02-11T00:55:08.726Z,100573.19
2023-02-11T00:57:35.434Z,100562.75
2023-02-11T01:00:02.196Z,100571.44
2023-02-11T01:02:29.517Z,100570.56
2023-02-11T01:04:56.269Z,100571.41
2023-02-11T01:07:25.619Z,100556.72
2023-02-11T01:09:52.543Z,100566.25
2023-02-11T01:12:19.165Z,100558.41
2023-02-11T01:14:45.810Z,100572.19
2023-02-11T01:17:12.500Z,100578.28
2023-02-11T01:19:39.650Z,100564.47
2023-02-11T01:22:06.305Z,100539.25
2023-02-11T01:24:34.048Z,100539.25
2023-02-11T01:27:00.684Z,100560.75
2023-02-11T01:29:27.307Z,100562.38
2023-02-11T01:31:53.910Z,100554.53
2023-02-11T01:34:20.485Z,100558.16
2023-02-11T01:36:47.066Z,100564.34
2023-02-11T01:39:13.690Z,100577.38
2023-02-11T01:41:40.337Z,100581.00
2023-02-11T01:44:25.705Z,100567.28
2023-02-11T01:46:52.714Z,100545.59
2023-02-11T01:49:25.288Z,100547.41
2023-02-11T01:51:59.333Z,100563.03
2023-02-11T01:54:48.658Z,100555.28
2023-02-11T01:57:25.189Z,100560.44
2023-02-11T02:00:04.489Z,100550.91
2023-02-11T02:02:37.243Z,100536.94
2023-02-11T02:05:14.785Z,100560.50
2023-02-11T02:07:52.371Z,100551.94
2023-02-11T02:10:24.348Z,100549.28
2023-02-11T02:12:50.981Z,100551.88
2023-02-11T02:15:33.517Z,100562.41
2023-02-11T02:18:23.077Z,100559.84
2023-02-11T02:21:22.628Z,100564.25
2023-02-11T02:24:01.160Z,100561.66
2023-02-11T02:26:40.213Z,100562.53
2023-02-11T02:29:24.672Z,100567.72
2023-02-11T02:32:00.776Z,100565.13
2023-02-11T02:34:41.866Z,100554.66
2023-02-11T02:37:17.493Z,100559.94
2023-02-11T02:39:47.039Z,100554.66
2023-02-11T02:42:14.956Z,100559.09
2023-02-11T02:44:47.533Z,100563.47
2023-02-11T02:47:14.333Z,100574.72
2023-02-11T02:49:40.929Z,100566.94
2023-02-11T02:52:27.759Z,100564.41
2023-02-11T02:55:06.077Z,100573.94
2023-02-11T02:57:38.387Z,100581.69
2023-02-11T03:00:23.334Z,100586.91
2023-02-11T03:03:19.752Z,100561.97
2023-02-11T03:05:58.476Z,100557.59
2023-02-11T03:08:36.635Z,100564.56
2023-02-11T03:11:05.565Z,100560.22
2023-02-11T03:13:35.868Z,100545.47
2023-02-11T03:16:11.360Z,100551.59
2023-02-11T03:18:42.420Z,100559.44
2023-02-11T03:21:11.145Z,100559.44
2023-02-11T03:23:42.714Z,100541.25
2023-02-11T03:26:18.733Z,100552.50
2023-02-11T03:28:52.731Z,100549.13
2023-02-11T03:31:31.357Z,100555.19
2023-02-11T03:34:13.502Z,100542.16
2023-02-11T03:36:47.286Z,100550.00
2023-02-11T03:39:22.752Z,100549.06
2023-02-11T03:41:52.677Z,100548.22
2023-02-11T03:44:21.508Z,100540.41
2023-02-11T03:46:53.751Z,100528.28
2023-02-11T03:49:23.431Z,100547.41
2023-02-11T03:51:53.065Z,100547.44
2023-02-11T03:54:29.774Z,100543.97
2023-02-11T03:57:00.500Z,100544.00
2023-02-11T03:59:27.726Z,100535.34
2023-02-11T04:01:55.066Z,100544.03
2023-02-11T04:04:21.979Z,100537.13
2023-02-11T04:06:48.625Z,100544.88
2023-02-11T04:09:16.814Z,100526.69
2023-02-11T04:11:43.371Z,100536.19
2023-02-11T04:14:09.968Z,100537.94
2023-02-11T04:16:36.600Z,100531.94
2023-02-11T04:19:03.341Z,100531.91
2023-02-11T04:21:29.893Z,100537.09
2023-02-11T04:23:56.800Z,100530.16
2023-02-11T04:26:23.465Z,100537.09
2023-02-11T04:28:50.007Z,100537.16
2023-02-11T04:31:16.647Z,100536.31
2023-02-11T04:33:43.325Z,100535.38
2023-02-11T04:36:09.922Z,100521.53
2023-02-11T04:38:37.314Z,100533.75
2023-02-11T04:41:03.971Z,100532.78
2023-02-11T04:43:30.542Z,100528.53
2023-02-11T04:45:58.967Z,100529.28
2023-02-11T04:48:26.281Z,100508.47
2023-02-11T04:50:52.954Z,100525.84
2023-02-11T04:53:19.887Z,100537.13
2023-02-11T04:55:50.903Z,100531.00
